sensor_id;sensor_type;location;lat;lon;timestamp;P1;durP1;ratioP1;P2;durP2;ratioP2
5026;SDS011;2532;52.480;13.354;2023-01-26T05:02:07;23.60;;;10.90;;
5026;SDS011;2532;52.480;13.354;2023-01-26T05:04:34;19.43;;;9.63;;
5026;SDS011;2532;52.480;13.354;2023-01-26T05:07:01;19.70;;;9.47;;
5026;SDS011;2532;52.480;13.354;2023-01-26T05:09:28;22.07;;;10.50;;
5026;SDS011;2532;52.480;13.354;2023-01-26T05:11:55;21.80;;;10.97;;
5026;SDS011;2532;52.480;13.354;2023-01-26T05:14:42;18.90;;;10.23;;
5026;SDS011;2532;52.480;13.354;2023-01-26T05:17:10;22.90;;;11.63;;
5026;SDS011;2532;52.480;13.354;2023-01-26T05:19:37;18.60;;;9.77;;
5026;SDS011;2532;52.480;13.354;2023-01-26T05:22:04;20.17;;;8.77;;
5026;SDS011;2532;52.480;13.354;2023-01-26T05:24:31;22.00;;;9.70;;
5026;SDS011;2532;52.480;13.354;2023-01-26T05:26:58;21.57;;;9.40;;
5026;SDS011;2532;52.480;13.354;2023-01-26T05:29:44;17.77;;;9.80;;
5026;SDS011;2532;52.480;13.354;2023-01-26T05:32:12;18.23;;;9.60;;
5026;SDS011;2532;52.480;13.354;2023-01-26T05:34:39;21.47;;;9.03;;
5026;SDS011;2532;52.480;13.354;2023-01-26T05:37:07;23.73;;;10.10;;
5026;SDS011;2532;52.480;13.354;2023-01-26T05:39:34;20.57;;;10.43;;
5026;SDS011;2532;52.480;13.354;2023-01-26T05:42:01;23.23;;;10.47;;
5026;SDS011;2532;52.480;13.354;2023-01-26T05:44:28;18.17;;;8.80;;
5026;SDS011;2532;52.480;13.354;2023-01-26T05:46:55;17.50;;;8.77;;
5026;SDS011;2532;52.480;13.354;2023-01-26T05:49:23;18.50;;;8.37;;
5026;SDS011;2532;52.480;13.354;2023-01-26T05:51:50;19.60;;;8.60;;
5026;SDS011;2532;52.480;13.354;2023-01-26T05:54:17;19.50;;;9.50;;
5026;SDS011;2532;52.480;13.354;2023-01-26T05:56:44;19.23;;;9.90;;
5026;SDS011;2532;52.480;13.354;2023-01-26T05:59:11;17.77;;;9.10;;
5026;SDS011;2532;52.480;13.354;2023-01-26T06:01:38;23.47;;;11.13;;
5026;SDS011;2532;52.480;13.354;2023-01-26T06:04:07;25.97;;;10.50;;
5026;SDS011;2532;52.480;13.354;2023-01-26T06:06:35;21.07;;;10.17;;
5026;SDS011;2532;52.480;13.354;2023-01-26T06:09:02;22.33;;;10.43;;
5026;SDS011;2532;52.480;13.354;2023-01-26T06:11:30;20.70;;;9.90;;
5026;SDS011;2532;52.480;13.354;2023-01-26T06:13:57;20.70;;;9.40;;
5026;SDS011;2532;52.480;13.354;2023-01-26T06:16:24;22.43;;;9.27;;
5026;SDS011;2532;52.480;13.354;2023-01-26T06:18:51;22.00;;;8.90;;
5026;SDS011;2532;52.480;13.354;2023-01-26T06:21:18;22.83;;;9.60;;
5026;SDS011;2532;52.480;13.354;2023-01-26T06:23:46;23.40;;;9.67;;
5026;SDS011;2532;52.480;13.354;2023-01-26T06:26:13;20.30;;;9.43;;
5026;SDS011;2532;52.480;13.354;2023-01-26T06:28:40;20.07;;;10.13;;
5026;SDS011;2532;52.480;13.354;2023-01-26T06:31:07;19.30;;;9.10;;
5026;SDS011;2532;52.480;13.354;2023-01-26T06:33:35;22.10;;;10.97;;
5026;SDS011;2532;52.480;13.354;2023-01-26T06:36:03;22.07;;;10.80;;
5026;SDS011;2532;52.480;13.354;2023-01-26T06:38:31;22.13;;;10.03;;
5026;SDS011;2532;52.480;13.354;2023-01-26T06:41:00;18.77;;;9.53;;
5026;SDS011;2532;52.480;13.354;2023-01-26T06:43:28;18.27;;;9.37;;
5026;SDS011;2532;52.480;13.354;2023-01-26T06:45:55;18.10;;;8.57;;
5026;SDS011;2532;52.480;13.354;2023-01-26T06:48:22;17.20;;;8.50;;
5026;SDS011;2532;52.480;13.354;2023-01-26T06:50:50;16.70;;;9.00;;
5026;SDS011;2532;52.480;13.354;2023-01-26T06:53:24;19.23;;;8.20;;
5026;SDS011;2532;52.480;13.354;2023-01-26T06:55:54;14.67;;;7.23;;
5026;SDS011;2532;52.480;13.354;2023-01-26T06:58:22;20.10;;;9.50;;
5026;SDS011;2532;52.480;13.354;2023-01-26T07:00:49;16.70;;;7.90;;
5026;SDS011;2532;52.480;13.354;2023-01-26T07:03:16;18.00;;;10.77;;
5026;SDS011;2532;52.480;13.354;2023-01-26T07:05:43;21.03;;;9.23;;
5026;SDS011;2532;52.480;13.354;2023-01-26T07:08:10;19.50;;;9.70;;
5026;SDS011;2532;52.480;13.354;2023-01-26T07:10:37;23.27;;;10.13;;
5026;SDS011;2532;52.480;13.354;2023-01-26T07:13:05;19.47;;;9.30;;
5026;SDS011;2532;52.480;13.354;2023-01-26T07:15:34;18.80;;;9.37;;
5026;SDS011;2532;52.480;13.354;2023-01-26T07:18:00;17.20;;;9.40;;
5026;SDS011;2532;52.480;13.354;2023-01-26T07:20:27;19.47;;;8.20;;
5026;SDS011;2532;52.480;13.354;2023-01-26T07:22:54;20.73;;;10.10;;
5026;SDS011;2532;52.480;13.354;2023-01-26T07:25:22;22.10;;;10.23;;
5026;SDS011;2532;52.480;13.354;2023-01-26T07:27:54;21.57;;;11.30;;
5026;SDS011;2532;52.480;13.354;2023-01-26T07:30:21;18.63;;;9.20;;
5026;SDS011;2532;52.480;13.354;2023-01-26T07:32:50;17.20;;;10.00;;
5026;SDS011;2532;52.480;13.354;2023-01-26T07:35:17;22.13;;;11.10;;
5026;SDS011;2532;52.480;13.354;2023-01-26T07:37:44;28.73;;;10.00;;
5026;SDS011;2532;52.480;13.354;2023-01-26T07:40:11;15.73;;;8.37;;
5026;SDS011;2532;52.480;13.354;2023-01-26T07:42:38;17.43;;;9.17;;
5026;SDS011;2532;52.480;13.354;2023-01-26T07:45:05;17.80;;;9.43;;
5026;SDS011;2532;52.480;13.354;2023-01-26T07:47:33;23.33;;;9.30;;
5026;SDS011;2532;52.480;13.354;2023-01-26T07:50:03;16.70;;;8.27;;
5026;SDS011;2532;52.480;13.354;2023-01-26T07:52:31;20.50;;;9.30;;
5026;SDS011;2532;52.480;13.354;2023-01-26T07:54:58;15.33;;;7.83;;
5026;SDS011;2532;52.480;13.354;2023-01-26T07:57:25;18.43;;;8.80;;
5026;SDS011;2532;52.480;13.354;2023-01-26T07:59:52;23.17;;;9.40;;
5026;SDS011;2532;52.480;13.354;2023-01-26T08:02:18;21.00;;;10.80;;
5026;SDS011;2532;52.480;13.354;2023-01-26T08:04:45;17.90;;;9.00;;
5026;SDS011;2532;52.480;13.354;2023-01-26T08:07:14;13.73;;;8.50;;
5026;SDS011;2532;52.480;13.354;2023-01-26T08:09:41;17.50;;;9.80;;
5026;SDS011;2532;52.480;13.354;2023-01-26T08:12:08;21.00;;;10.17;;
5026;SDS011;2532;52.480;13.354;2023-01-26T08:14:35;18.40;;;10.07;;
5026;SDS011;2532;52.480;13.354;2023-01-26T08:17:02;16.67;;;9.57;;
5026;SDS011;2532;52.480;13.354;2023-01-26T08:19:29;22.83;;;10.50;;
5026;SDS011;2532;52.480;13.354;2023-01-26T08:21:55;26.70;;;11.10;;
5026;SDS011;2532;52.480;13.354;2023-01-26T08:24:24;20.03;;;10.60;;
5026;SDS011;2532;52.480;13.354;2023-01-26T08:26:52;19.70;;;10.60;;
5026;SDS011;2532;52.480;13.354;2023-01-26T08:29:19;17.07;;;7.90;;
5026;SDS011;2532;52.480;13.354;2023-01-26T08:31:46;19.40;;;9.50;;
5026;SDS011;2532;52.480;13.354;2023-01-26T08:34:13;15.60;;;9.20;;
5026;SDS011;2532;52.480;13.354;2023-01-26T08:36:40;20.53;;;10.10;;
5026;SDS011;2532;52.480;13.354;2023-01-26T08:39:07;20.60;;;11.23;;
5026;SDS011;2532;52.480;13.354;2023-01-26T08:41:35;14.27;;;8.00;;
5026;SDS011;2532;52.480;13.354;2023-01-26T08:44:03;18.67;;;9.20;;
5026;SDS011;2532;52.480;13.354;2023-01-26T08:46:30;20.10;;;12.37;;
5026;SDS011;2532;52.480;13.354;2023-01-26T08:48:57;17.13;;;9.20;;
5026;SDS011;2532;52.480;13.354;2023-01-26T08:51:25;21.63;;;11.90;;
5026;SDS011;2532;52.480;13.354;2023-01-26T08:53:52;22.27;;;13.20;;
5026;SDS011;2532;52.480;13.354;2023-01-26T08:56:19;17.87;;;10.40;;
5026;SDS011;2532;52.480;13.354;2023-01-26T08:58:47;24.47;;;10.07;;
5026;SDS011;2532;52.480;13.354;2023-01-26T09:01:15;17.23;;;9.87;;
5026;SDS011;2532;52.480;13.354;2023-01-26T09:03:42;22.30;;;10.90;;
5026;SDS011;2532;52.480;13.354;2023-01-26T09:06:19;22.50;;;11.80;;
5026;SDS011;2532;52.480;13.354;2023-01-26T09:08:47;21.53;;;11.50;;
5026;SDS011;2532;52.480;13.354;2023-01-26T09:11:14;15.50;;;9.20;;
5026;SDS011;2532;52.480;13.354;2023-01-26T09:13:41;22.03;;;11.67;;
5026;SDS011;2532;52.480;13.354;2023-01-26T09:16:11;19.57;;;9.30;;
5026;SDS011;2532;52.480;13.354;2023-01-26T09:18:42;15.53;;;9.47;;
5026;SDS011;2532;52.480;13.354;2023-01-26T09:21:09;15.13;;;7.97;;
5026;SDS011;2532;52.480;13.354;2023-01-26T09:23:36;17.17;;;9.80;;
5026;SDS011;2532;52.480;13.354;2023-01-26T09:26:03;19.33;;;9.90;;
5026;SDS011;2532;52.480;13.354;2023-01-26T09:28:30;18.73;;;9.67;;
5026;SDS011;2532;52.480;13.354;2023-01-26T09:31:01;17.70;;;10.80;;
5026;SDS011;2532;52.480;13.354;2023-01-26T09:33:30;21.23;;;10.50;;
5026;SDS011;2532;52.480;13.354;2023-01-26T09:36:01;15.93;;;8.83;;
5026;SDS011;2532;52.480;13.354;2023-01-26T09:38:28;17.20;;;9.37;;
5026;SDS011;2532;52.480;13.354;2023-01-26T09:40:57;18.73;;;9.10;;
5026;SDS011;2532;52.480;13.354;2023-01-26T09:43:31;15.87;;;8.83;;
5026;SDS011;2532;52.480;13.354;2023-01-26T09:46:06;17.13;;;10.23;;
5026;SDS011;2532;52.480;13.354;2023-01-26T09:48:46;16.43;;;8.93;;
5026;SDS011;2532;52.480;13.354;2023-01-26T09:51:23;15.63;;;9.33;;
5026;SDS011;2532;52.480;13.354;2023-01-26T09:53:57;16.10;;;8.30;;
5026;SDS011;2532;52.480;13.354;2023-01-26T09:56:29;16.37;;;9.47;;
5026;SDS011;2532;52.480;13.354;2023-01-26T09:59:00;13.20;;;7.70;;
5026;SDS011;2532;52.480;13.354;2023-01-26T10:01:34;15.40;;;8.23;;
5026;SDS011;2532;52.480;13.354;2023-01-26T10:04:08;15.07;;;9.63;;
5026;SDS011;2532;52.480;13.354;2023-01-26T10:06:44;12.57;;;8.20;;
5026;SDS011;2532;52.480;13.354;2023-01-26T10:09:13;15.30;;;8.03;;
5026;SDS011;2532;52.480;13.354;2023-01-26T10:11:46;19.70;;;12.07;;
5026;SDS011;2532;52.480;13.354;2023-01-26T10:14:17;19.83;;;10.50;;
5026;SDS011;2532;52.480;13.354;2023-01-26T10:16:49;20.03;;;11.60;;
5026;SDS011;2532;52.480;13.354;2023-01-26T10:19:27;16.43;;;9.53;;
5026;SDS011;2532;52.480;13.354;2023-01-26T10:21:59;16.77;;;10.20;;
5026;SDS011;2532;52.480;13.354;2023-01-26T10:24:30;15.50;;;9.60;;
5026;SDS011;2532;52.480;13.354;2023-01-26T10:26:58;16.90;;;9.47;;
5026;SDS011;2532;52.480;13.354;2023-01-26T10:29:28;23.00;;;9.80;;
5026;SDS011;2532;52.480;13.354;2023-01-26T10:31:54;18.83;;;9.23;;
5026;SDS011;2532;52.480;13.354;2023-01-26T10:34:24;18.80;;;10.33;;
5026;SDS011;2532;52.480;13.354;2023-01-26T10:36:55;23.03;;;11.00;;
5026;SDS011;2532;52.480;13.354;2023-01-26T10:39:26;18.37;;;10.60;;
5026;SDS011;2532;52.480;13.354;2023-01-26T10:41:56;16.97;;;9.87;;
5026;SDS011;2532;52.480;13.354;2023-01-26T10:44:27;18.10;;;10.10;;
5026;SDS011;2532;52.480;13.354;2023-01-26T10:47:01;20.33;;;10.67;;
5026;SDS011;2532;52.480;13.354;2023-01-26T10:49:40;19.80;;;9.97;;
5026;SDS011;2532;52.480;13.354;2023-01-26T10:52:10;19.63;;;10.87;;
5026;SDS011;2532;52.480;13.354;2023-01-26T10:54:42;21.57;;;10.20;;
5026;SDS011;2532;52.480;13.354;2023-01-26T10:57:13;21.90;;;10.83;;
5026;SDS011;2532;52.480;13.354;2023-01-26T10:59:47;19.33;;;11.53;;
5026;SDS011;2532;52.480;13.354;2023-01-26T11:02:19;23.90;;;13.73;;
5026;SDS011;2532;52.480;13.354;2023-01-26T11:05:01;19.40;;;10.80;;
5026;SDS011;2532;52.480;13.354;2023-01-26T11:07:44;20.77;;;11.30;;
5026;SDS011;2532;52.480;13.354;2023-01-26T11:10:16;20.37;;;11.50;;
5026;SDS011;2532;52.480;13.354;2023-01-26T11:12:45;20.93;;;11.57;;
5026;SDS011;2532;52.480;13.354;2023-01-26T11:15:16;20.17;;;11.90;;
5026;SDS011;2532;52.480;13.354;2023-01-26T11:17:48;20.97;;;11.63;;
5026;SDS011;2532;52.480;13.354;2023-01-26T11:20:37;18.33;;;9.80;;
5026;SDS011;2532;52.480;13.354;2023-01-26T11:23:12;24.27;;;12.40;;
5026;SDS011;2532;52.480;13.354;2023-01-26T11:25:59;20.27;;;10.60;;
5026;SDS011;2532;52.480;13.354;2023-01-26T11:28:44;19.23;;;10.63;;
5026;SDS011;2532;52.480;13.354;2023-01-26T11:31:22;18.23;;;9.73;;
5026;SDS011;2532;52.480;13.354;2023-01-26T11:34:02;23.70;;;9.97;;
5026;SDS011;2532;52.480;13.354;2023-01-26T11:36:40;23.97;;;11.23;;
5026;SDS011;2532;52.480;13.354;2023-01-26T11:39:16;22.77;;;11.20;;
5026;SDS011;2532;52.480;13.354;2023-01-26T11:41:55;20.37;;;11.60;;
5026;SDS011;2532;52.480;13.354;2023-01-26T11:44:39;20.20;;;11.23;;
5026;SDS011;2532;52.480;13.354;2023-01-26T11:47:24;23.20;;;12.53;;
5026;SDS011;2532;52.480;13.354;2023-01-26T11:50:08;22.90;;;11.13;;
5026;SDS011;2532;52.480;13.354;2023-01-26T11:52:47;19.17;;;10.87;;
5026;SDS011;2532;52.480;13.354;2023-01-26T11:55:24;20.83;;;10.40;;
5026;SDS011;2532;52.480;13.354;2023-01-26T11:58:04;21.60;;;9.60;;
5026;SDS011;2532;52.480;13.354;2023-01-26T12:00:48;22.73;;;11.97;;
5026;SDS011;2532;52.480;13.354;2023-01-26T12:03:20;21.00;;;12.60;;
5026;SDS011;2532;52.480;13.354;2023-01-26T12:05:51;21.50;;;10.40;;
5026;SDS011;2532;52.480;13.354;2023-01-26T12:08:24;20.83;;;9.70;;
5026;SDS011;2532;52.480;13.354;2023-01-26T12:11:02;23.93;;;11.47;;
5026;SDS011;2532;52.480;13.354;2023-01-26T12:13:45;22.13;;;11.13;;
5026;SDS011;2532;52.480;13.354;2023-01-26T12:16:19;21.10;;;11.47;;
5026;SDS011;2532;52.480;13.354;2023-01-26T12:18:53;20.73;;;11.67;;
5026;SDS011;2532;52.480;13.354;2023-01-26T12:21:27;21.37;;;10.30;;
5026;SDS011;2532;52.480;13.354;2023-01-26T12:23:58;21.87;;;10.67;;
5026;SDS011;2532;52.480;13.354;2023-01-26T12:26:31;21.53;;;11.47;;
5026;SDS011;2532;52.480;13.354;2023-01-26T12:29:02;19.90;;;11.10;;
5026;SDS011;2532;52.480;13.354;2023-01-26T12:31:34;19.17;;;11.20;;
5026;SDS011;2532;52.480;13.354;2023-01-26T12:34:07;19.27;;;10.17;;
5026;SDS011;2532;52.480;13.354;2023-01-26T12:36:40;22.63;;;9.23;;
5026;SDS011;2532;52.480;13.354;2023-01-26T12:39:14;17.87;;;9.60;;
5026;SDS011;2532;52.480;13.354;2023-01-26T12:41:57;17.27;;;9.93;;
5026;SDS011;2532;52.480;13.354;2023-01-26T12:44:35;19.90;;;10.43;;
5026;SDS011;2532;52.480;13.354;2023-01-26T12:47:07;16.30;;;9.93;;
5026;SDS011;2532;52.480;13.354;2023-01-26T12:49:39;19.47;;;10.10;;
5026;SDS011;2532;52.480;13.354;2023-01-26T12:52:12;22.43;;;10.33;;
5026;SDS011;2532;52.480;13.354;2023-01-26T12:54:48;20.40;;;12.30;;
5026;SDS011;2532;52.480;13.354;2023-01-26T12:57:23;18.33;;;10.23;;
5026;SDS011;2532;52.480;13.354;2023-01-26T13:00:00;17.60;;;9.70;;
5026;SDS011;2532;52.480;13.354;2023-01-26T13:02:31;16.87;;;10.10;;
5026;SDS011;2532;52.480;13.354;2023-01-26T13:05:00;16.30;;;10.03;;
5026;SDS011;2532;52.480;13.354;2023-01-26T13:07:30;13.10;;;7.47;;
5026;SDS011;2532;52.480;13.354;2023-01-26T13:12:52;13.43;;;7.23;;
5026;SDS011;2532;52.480;13.354;2023-01-26T13:15:21;11.17;;;6.67;;
5026;SDS011;2532;52.480;13.354;2023-01-26T13:17:50;13.10;;;7.93;;
5026;SDS011;2532;52.480;13.354;2023-01-26T13:26:24;15.07;;;9.23;;
5026;SDS011;2532;52.480;13.354;2023-01-26T13:35:24;12.93;;;7.50;;
5026;SDS011;2532;52.480;13.354;2023-01-26T13:37:54;12.60;;;8.00;;
5026;SDS011;2532;52.480;13.354;2023-01-26T13:40:27;12.43;;;8.10;;
5026;SDS011;2532;52.480;13.354;2023-01-26T13:42:59;12.33;;;6.97;;
5026;SDS011;2532;52.480;13.354;2023-01-26T13:45:31;10.90;;;7.50;;
5026;SDS011;2532;52.480;13.354;2023-01-26T13:48:02;16.00;;;8.70;;
5026;SDS011;2532;52.480;13.354;2023-01-26T13:50:38;12.97;;;7.70;;
5026;SDS011;2532;52.480;13.354;2023-01-26T13:55:56;13.37;;;7.97;;
5026;SDS011;2532;52.480;13.354;2023-01-26T13:58:26;13.10;;;8.53;;
5026;SDS011;2532;52.480;13.354;2023-01-26T14:00:56;16.00;;;8.80;;
5026;SDS011;2532;52.480;13.354;2023-01-26T14:03:27;13.90;;;8.80;;
5026;SDS011;2532;52.480;13.354;2023-01-26T14:05:55;11.67;;;7.70;;
5026;SDS011;2532;52.480;13.354;2023-01-26T14:08:25;15.53;;;9.13;;
5026;SDS011;2532;52.480;13.354;2023-01-26T14:10:53;15.83;;;9.40;;
5026;SDS011;2532;52.480;13.354;2023-01-26T14:13:22;15.23;;;8.03;;
5026;SDS011;2532;52.480;13.354;2023-01-26T14:15:58;15.63;;;8.40;;
5026;SDS011;2532;52.480;13.354;2023-01-26T14:18:26;18.20;;;11.73;;
5026;SDS011;2532;52.480;13.354;2023-01-26T14:20:57;15.90;;;9.60;;
5026;SDS011;2532;52.480;13.354;2023-01-26T14:23:26;15.33;;;9.60;;
5026;SDS011;2532;52.480;13.354;2023-01-26T14:25:58;19.37;;;10.33;;
5026;SDS011;2532;52.480;13.354;2023-01-26T14:28:29;18.40;;;10.30;;
5026;SDS011;2532;52.480;13.354;2023-01-26T14:31:02;23.03;;;10.20;;
5026;SDS011;2532;52.480;13.354;2023-01-26T14:33:32;23.70;;;11.23;;
5026;SDS011;2532;52.480;13.354;2023-01-26T14:36:03;17.80;;;9.90;;
5026;SDS011;2532;52.480;13.354;2023-01-26T14:38:38;18.00;;;9.63;;
5026;SDS011;2532;52.480;13.354;2023-01-26T14:41:07;21.23;;;10.30;;
5026;SDS011;2532;52.480;13.354;2023-01-26T14:43:41;20.90;;;10.93;;
5026;SDS011;2532;52.480;13.354;2023-01-26T14:46:09;21.67;;;10.50;;
5026;SDS011;2532;52.480;13.354;2023-01-26T14:48:42;17.43;;;10.30;;
5026;SDS011;2532;52.480;13.354;2023-01-26T14:51:14;23.90;;;13.27;;
5026;SDS011;2532;52.480;13.354;2023-01-26T14:53:48;16.27;;;9.70;;
5026;SDS011;2532;52.480;13.354;2023-01-26T14:56:17;21.50;;;11.40;;
5026;SDS011;2532;52.480;13.354;2023-01-26T14:58:48;18.77;;;10.47;;
5026;SDS011;2532;52.480;13.354;2023-01-26T15:01:23;19.80;;;10.30;;
5026;SDS011;2532;52.480;13.354;2023-01-26T15:03:55;18.73;;;9.77;;
5026;SDS011;2532;52.480;13.354;2023-01-26T15:06:24;17.17;;;10.43;;
5026;SDS011;2532;52.480;13.354;2023-01-26T15:08:55;14.57;;;9.20;;
5026;SDS011;2532;52.480;13.354;2023-01-26T15:11:34;19.77;;;10.93;;
5026;SDS011;2532;52.480;13.354;2023-01-26T15:14:28;23.43;;;10.93;;
5026;SDS011;2532;52.480;13.354;2023-01-26T15:16:59;21.80;;;10.63;;
5026;SDS011;2532;52.480;13.354;2023-01-26T15:19:30;16.00;;;9.57;;
5026;SDS011;2532;52.480;13.354;2023-01-26T15:22:04;20.80;;;9.80;;
5026;SDS011;2532;52.480;13.354;2023-01-26T15:24:41;19.10;;;10.47;;
5026;SDS011;2532;52.480;13.354;2023-01-26T15:27:09;22.30;;;11.50;;
5026;SDS011;2532;52.480;13.354;2023-01-26T15:29:38;21.30;;;10.23;;
5026;SDS011;2532;52.480;13.354;2023-01-26T15:35:13;22.23;;;10.30;;
5026;SDS011;2532;52.480;13.354;2023-01-26T15:37:44;22.47;;;10.93;;
5026;SDS011;2532;52.480;13.354;2023-01-26T15:40:11;23.67;;;13.70;;
5026;SDS011;2532;52.480;13.354;2023-01-26T15:42:39;20.93;;;11.60;;
5026;SDS011;2532;52.480;13.354;2023-01-26T15:45:10;25.57;;;11.77;;
5026;SDS011;2532;52.480;13.354;2023-01-26T15:47:48;24.23;;;11.93;;
5026;SDS011;2532;52.480;13.354;2023-01-26T15:50:16;26.63;;;12.13;;
5026;SDS011;2532;52.480;13.354;2023-01-26T15:52:43;23.77;;;12.73;;
5026;SDS011;2532;52.480;13.354;2023-01-26T15:55:18;25.03;;;12.10;;
5026;SDS011;2532;52.480;13.354;2023-01-26T15:57:46;30.27;;;14.63;;
5026;SDS011;2532;52.480;13.354;2023-01-26T16:00:13;32.33;;;15.47;;
5026;SDS011;2532;52.480;13.354;2023-01-26T16:02:41;28.27;;;14.00;;
5026;SDS011;2532;52.480;13.354;2023-01-26T16:05:11;26.77;;;14.10;;
5026;SDS011;2532;52.480;13.354;2023-01-26T16:07:41;33.43;;;17.60;;
5026;SDS011;2532;52.480;13.354;2023-01-26T16:10:08;26.53;;;13.03;;
5026;SDS011;2532;52.480;13.354;2023-01-26T16:12:36;25.83;;;12.77;;
5026;SDS011;2532;52.480;13.354;2023-01-26T16:15:08;33.70;;;14.70;;
5026;SDS011;2532;52.480;13.354;2023-01-26T16:17:59;37.37;;;14.10;;
5026;SDS011;2532;52.480;13.354;2023-01-26T16:20:27;28.30;;;12.67;;
5026;SDS011;2532;52.480;13.354;2023-01-26T16:22:54;27.27;;;15.33;;
5026;SDS011;2532;52.480;13.354;2023-01-26T16:25:22;25.30;;;12.70;;
5026;SDS011;2532;52.480;13.354;2023-01-26T16:27:51;26.23;;;12.80;;
5026;SDS011;2532;52.480;13.354;2023-01-26T16:30:19;28.27;;;13.47;;
5026;SDS011;2532;52.480;13.354;2023-01-26T16:32:46;28.57;;;14.70;;
5026;SDS011;2532;52.480;13.354;2023-01-26T16:35:14;24.97;;;11.10;;
5026;SDS011;2532;52.480;13.354;2023-01-26T16:37:44;20.40;;;10.20;;
5026;SDS011;2532;52.480;13.354;2023-01-26T16:40:12;23.53;;;12.57;;
5026;SDS011;2532;52.480;13.354;2023-01-26T16:42:40;23.90;;;11.60;;
5026;SDS011;2532;52.480;13.354;2023-01-26T16:45:13;22.03;;;12.37;;
5026;SDS011;2532;52.480;13.354;2023-01-26T16:47:41;26.03;;;11.27;;
5026;SDS011;2532;52.480;13.354;2023-01-26T16:50:08;29.50;;;13.60;;
5026;SDS011;2532;52.480;13.354;2023-01-26T16:52:36;24.60;;;11.63;;
5026;SDS011;2532;52.480;13.354;2023-01-26T16:55:07;28.53;;;15.17;;
5026;SDS011;2532;52.480;13.354;2023-01-26T16:57:38;28.93;;;13.30;;
5026;SDS011;2532;52.480;13.354;2023-01-26T17:00:06;30.63;;;15.47;;
5026;SDS011;2532;52.480;13.354;2023-01-26T17:02:36;45.50;;;18.30;;
5026;SDS011;2532;52.480;13.354;2023-01-26T17:05:03;31.97;;;15.53;;
5026;SDS011;2532;52.480;13.354;2023-01-26T17:07:31;31.30;;;16.30;;
5026;SDS011;2532;52.480;13.354;2023-01-26T17:09:57;30.37;;;13.70;;
5026;SDS011;2532;52.480;13.354;2023-01-26T17:12:26;35.63;;;18.20;;
5026;SDS011;2532;52.480;13.354;2023-01-26T17:14:53;26.10;;;11.30;;
5026;SDS011;2532;52.480;13.354;2023-01-26T17:17:20;34.37;;;15.07;;
5026;SDS011;2532;52.480;13.354;2023-01-26T17:19:49;37.73;;;19.17;;
5026;SDS011;2532;52.480;13.354;2023-01-26T17:22:17;32.07;;;14.70;;
5026;SDS011;2532;52.480;13.354;2023-01-26T17:24:44;30.90;;;14.73;;
5026;SDS011;2532;52.480;13.354;2023-01-26T17:27:11;27.50;;;13.60;;
5026;SDS011;2532;52.480;13.354;2023-01-26T17:29:39;30.07;;;13.70;;
5026;SDS011;2532;52.480;13.354;2023-01-26T17:32:09;29.00;;;13.20;;
5026;SDS011;2532;52.480;13.354;2023-01-26T17:34:36;33.33;;;14.40;;
5026;SDS011;2532;52.480;13.354;2023-01-26T17:37:24;35.53;;;16.97;;
5026;SDS011;2532;52.480;13.354;2023-01-26T17:39:53;40.63;;;16.90;;
5026;SDS011;2532;52.480;13.354;2023-01-26T17:42:20;36.43;;;17.67;;
5026;SDS011;2532;52.480;13.354;2023-01-26T17:44:48;37.37;;;17.40;;
5026;SDS011;2532;52.480;13.354;2023-01-26T17:47:18;32.93;;;14.43;;
5026;SDS011;2532;52.480;13.354;2023-01-26T17:49:45;33.20;;;14.63;;
5026;SDS011;2532;52.480;13.354;2023-01-26T17:52:12;36.23;;;17.37;;
5026;SDS011;2532;52.480;13.354;2023-01-26T17:54:39;39.90;;;17.83;;
5026;SDS011;2532;52.480;13.354;2023-01-26T17:57:06;37.30;;;17.00;;
5026;SDS011;2532;52.480;13.354;2023-01-26T17:59:33;35.20;;;15.87;;
5026;SDS011;2532;52.480;13.354;2023-01-26T18:02:02;32.90;;;14.80;;
5026;SDS011;2532;52.480;13.354;2023-01-26T18:04:29;33.40;;;17.20;;
5026;SDS011;2532;52.480;13.354;2023-01-26T18:07:03;35.73;;;14.30;;
5026;SDS011;2532;52.480;13.354;2023-01-26T18:09:30;31.27;;;13.17;;
5026;SDS011;2532;52.480;13.354;2023-01-26T18:11:57;29.70;;;13.90;;
5026;SDS011;2532;52.480;13.354;2023-01-26T18:14:24;31.83;;;14.03;;
5026;SDS011;2532;52.480;13.354;2023-01-26T18:16:51;34.43;;;16.00;;
5026;SDS011;2532;52.480;13.354;2023-01-26T18:19:28;29.63;;;13.40;;
5026;SDS011;2532;52.480;13.354;2023-01-26T18:21:55;40.20;;;17.70;;
5026;SDS011;2532;52.480;13.354;2023-01-26T18:24:22;36.80;;;16.93;;
5026;SDS011;2532;52.480;13.354;2023-01-26T18:26:49;45.23;;;18.57;;
5026;SDS011;2532;52.480;13.354;2023-01-26T18:29:16;30.23;;;13.27;;
5026;SDS011;2532;52.480;13.354;2023-01-26T18:31:43;32.77;;;15.87;;
5026;SDS011;2532;52.480;13.354;2023-01-26T18:34:14;33.37;;;16.50;;
5026;SDS011;2532;52.480;13.354;2023-01-26T18:36:46;32.57;;;14.97;;
5026;SDS011;2532;52.480;13.354;2023-01-26T18:39:13;27.97;;;13.10;;
5026;SDS011;2532;52.480;13.354;2023-01-26T18:41:41;29.77;;;12.90;;
5026;SDS011;2532;52.480;13.354;2023-01-26T18:44:08;33.90;;;14.33;;
5026;SDS011;2532;52.480;13.354;2023-01-26T18:46:35;26.77;;;12.90;;
5026;SDS011;2532;52.480;13.354;2023-01-26T18:49:03;32.47;;;15.30;;
5026;SDS011;2532;52.480;13.354;2023-01-26T18:51:36;36.33;;;16.00;;
5026;SDS011;2532;52.480;13.354;2023-01-26T18:54:04;37.33;;;18.87;;
5026;SDS011;2532;52.480;13.354;2023-01-26T18:56:33;32.60;;;13.30;;
5026;SDS011;2532;52.480;13.354;2023-01-26T18:59:01;32.60;;;16.80;;
5026;SDS011;2532;52.480;13.354;2023-01-26T19:01:28;29.57;;;13.30;;
5026;SDS011;2532;52.480;13.354;2023-01-26T19:03:55;28.50;;;13.90;;
5026;SDS011;2532;52.480;13.354;2023-01-26T19:06:23;30.17;;;14.00;;
5026;SDS011;2532;52.480;13.354;2023-01-26T19:08:53;32.33;;;15.40;;
5026;SDS011;2532;52.480;13.354;2023-01-26T19:11:25;33.20;;;15.07;;
5026;SDS011;2532;52.480;13.354;2023-01-26T19:13:53;32.33;;;14.90;;
5026;SDS011;2532;52.480;13.354;2023-01-26T19:16:22;33.00;;;13.10;;
5026;SDS011;2532;52.480;13.354;2023-01-26T19:18:50;30.30;;;12.93;;
5026;SDS011;2532;52.480;13.354;2023-01-26T19:21:18;34.47;;;14.50;;
5026;SDS011;2532;52.480;13.354;2023-01-26T19:23:48;31.37;;;15.50;;
5026;SDS011;2532;52.480;13.354;2023-01-26T19:26:17;31.93;;;14.00;;
5026;SDS011;2532;52.480;13.354;2023-01-26T19:28:46;35.97;;;17.50;;
5026;SDS011;2532;52.480;13.354;2023-01-26T19:31:14;38.70;;;14.27;;
5026;SDS011;2532;52.480;13.354;2023-01-26T19:33:47;32.43;;;14.37;;
5026;SDS011;2532;52.480;13.354;2023-01-26T19:36:15;31.47;;;12.80;;
5026;SDS011;2532;52.480;13.354;2023-01-26T19:38:42;29.93;;;14.10;;
5026;SDS011;2532;52.480;13.354;2023-01-26T19:41:09;33.50;;;14.77;;
5026;SDS011;2532;52.480;13.354;2023-01-26T19:43:36;32.57;;;13.03;;
5026;SDS011;2532;52.480;13.354;2023-01-26T19:46:05;39.63;;;14.83;;
5026;SDS011;2532;52.480;13.354;2023-01-26T19:48:36;37.80;;;14.10;;
5026;SDS011;2532;52.480;13.354;2023-01-26T19:51:04;36.97;;;15.20;;
5026;SDS011;2532;52.480;13.354;2023-01-26T19:53:33;42.83;;;16.67;;
5026;SDS011;2532;52.480;13.354;2023-01-26T19:56:05;42.10;;;19.20;;
5026;SDS011;2532;52.480;13.354;2023-01-26T19:58:32;34.50;;;16.03;;
5026;SDS011;2532;52.480;13.354;2023-01-26T20:01:00;37.83;;;17.57;;
5026;SDS011;2532;52.480;13.354;2023-01-26T20:03:30;35.50;;;14.70;;
5026;SDS011;2532;52.480;13.354;2023-01-26T20:05:58;35.30;;;14.40;;
5026;SDS011;2532;52.480;13.354;2023-01-26T20:08:25;31.23;;;14.03;;
5026;SDS011;2532;52.480;13.354;2023-01-26T20:10:53;32.57;;;13.60;;
5026;SDS011;2532;52.480;13.354;2023-01-26T20:13:27;33.37;;;13.13;;
5026;SDS011;2532;52.480;13.354;2023-01-26T20:15:54;30.87;;;14.17;;
5026;SDS011;2532;52.480;13.354;2023-01-26T20:18:22;35.03;;;13.80;;